Airport Name : Val De Loire

Other Name : Tours

ICAO : LFOT

IATA : TUF

FAA :

Latitude : 47.432222

Longitude : 0.727606

Country : France

Local Date and Time : 5/19/2019 8:18:00 AM

 

TAF (Terminal Aerodrome Forecast)

TAF LFOT 190500Z 1906/2006 30006KT 6000 SCT008 BKN050 TEMPO 1906/1908 2500 -RA BR BKN006 BECMG 1908/1910 9999 BKN020 TEMPO 1912/2002 -SHRA PROB30 1914/1919 4000 SHRA BKN020TCU PROB30 TEMPO 2004/2006 BKN010

 

METAR (METeorological Aerodrome Report)

LFOT 190600Z AUTO 31004KT 3100 BR BKN007 OVC016 11/11 Q1007 TEMPO 2500 -RA BR

LFOT 190530Z AUTO 32004KT 3200 BR BKN010 BKN037 OVC047 11/10 Q1007 TEMPO 2500 -RA BR

LFOT 190500Z AUTO 31004KT 270V330 3100 BR FEW014 OVC048 11/10 Q1007 TEMPO 1500 -RA BR BKN004

LFOT 190430Z AUTO 30003KT 270V330 4100 -RA BR BKN039 OVC046 11/11 Q1007 TEMPO 1500 -RA BR BKN004

LFOT 190400Z AUTO 29004KT 3600 RA BR SCT045 OVC070 11/11 Q1007 TEMPO 1500 -RA BR BKN004

LFOT 190330Z AUTO 30004KT 3700 -RA BR BKN046 OVC070 11/11 Q1007 TEMPO 1500 -RA BR BKN004

LFOT 190300Z AUTO 31003KT 3400 -RA BR FEW038 OVC044 12/11 Q1007 TEMPO 1500 -RA BR BKN004

LFOT 190230Z AUTO VRB02KT 3900 BR SCT036/// BKN043/// OVC049/// ///TCU 12/11 Q1007 TEMPO 1500 -RA BR BKN004